sensor_id;sensor_type;location;lat;lon;timestamp;temperature;humidity
43607;DHT22;29197;44.788;10.366;2023-05-15T00:01:42;16.20;99.90
43607;DHT22;29197;44.788;10.366;2023-05-15T00:04:31;16.20;99.90
43607;DHT22;29197;44.788;10.366;2023-05-15T00:07:20;16.30;99.90
43607;DHT22;29197;44.788;10.366;2023-05-15T00:10:09;16.20;99.90
43607;DHT22;29197;44.788;10.366;2023-05-15T00:12:57;16.30;99.90
43607;DHT22;29197;44.788;10.366;2023-05-15T00:15:47;16.20;99.90
43607;DHT22;29197;44.788;10.366;2023-05-15T00:18:36;16.30;99.90
43607;DHT22;29197;44.788;10.366;2023-05-15T00:21:24;16.20;99.90
43607;DHT22;29197;44.788;10.366;2023-05-15T00:24:13;16.20;99.90
43607;DHT22;29197;44.788;10.366;2023-05-15T01:12:14;15.10;99.90
43607;DHT22;29197;44.788;10.366;2023-05-15T01:15:04;15.20;99.90
43607;DHT22;29197;44.788;10.366;2023-05-15T11:52:48;23.70;99.90
43607;DHT22;29197;44.788;10.366;2023-05-15T11:55:38;23.80;99.90
43607;DHT22;29197;44.788;10.366;2023-05-15T11:58:28;24.00;99.90
43607;DHT22;29197;44.788;10.366;2023-05-15T12:01:17;24.20;99.90
43607;DHT22;29197;44.788;10.366;2023-05-15T12:04:11;24.30;99.90
43607;DHT22;29197;44.788;10.366;2023-05-15T12:07:01;24.30;99.90
43607;DHT22;29197;44.788;10.366;2023-05-15T12:09:50;24.10;99.90
43607;DHT22;29197;44.788;10.366;2023-05-15T12:12:40;24.10;99.90
43607;DHT22;29197;44.788;10.366;2023-05-15T12:15:30;24.40;99.90
43607;DHT22;29197;44.788;10.366;2023-05-15T12:18:18;24.70;99.90
43607;DHT22;29197;44.788;10.366;2023-05-15T12:21:08;25.10;99.90
43607;DHT22;29197;44.788;10.366;2023-05-15T12:29:44;25.60;99.90
43607;DHT22;29197;44.788;10.366;2023-05-15T12:35:23;25.70;99.90
43607;DHT22;29197;44.788;10.366;2023-05-15T12:38:14;25.80;99.90
43607;DHT22;29197;44.788;10.366;2023-05-15T12:41:02;25.80;99.90
43607;DHT22;29197;44.788;10.366;2023-05-15T12:43:51;25.80;99.90
43607;DHT22;29197;44.788;10.366;2023-05-15T12:46:40;25.80;99.90
43607;DHT22;29197;44.788;10.366;2023-05-15T12:49:30;25.90;99.90
43607;DHT22;29197;44.788;10.366;2023-05-15T12:52:18;26.20;99.90
43607;DHT22;29197;44.788;10.366;2023-05-15T12:55:07;26.00;99.90
43607;DHT22;29197;44.788;10.366;2023-05-15T12:57:57;27.60;99.90
43607;DHT22;29197;44.788;10.366;2023-05-15T13:00:48;26.00;99.90
43607;DHT22;29197;44.788;10.366;2023-05-15T13:03:41;26.40;99.90
43607;DHT22;29197;44.788;10.366;2023-05-15T13:06:32;26.10;99.90
43607;DHT22;29197;44.788;10.366;2023-05-15T13:09:33;26.20;99.90
43607;DHT22;29197;44.788;10.366;2023-05-15T13:12:21;26.20;99.90
43607;DHT22;29197;44.788;10.366;2023-05-15T13:15:22;26.20;99.90
43607;DHT22;29197;44.788;10.366;2023-05-15T13:18:12;26.20;99.90
43607;DHT22;29197;44.788;10.366;2023-05-15T13:21:01;26.20;99.90
43607;DHT22;29197;44.788;10.366;2023-05-15T13:23:51;26.30;99.90
43607;DHT22;29197;44.788;10.366;2023-05-15T13:26:40;26.10;99.90
43607;DHT22;29197;44.788;10.366;2023-05-15T13:35:06;26.00;99.90
43607;DHT22;29197;44.788;10.366;2023-05-15T13:37:56;25.80;99.90
43607;DHT22;29197;44.788;10.366;2023-05-15T13:40:45;25.10;99.90
43607;DHT22;29197;44.788;10.366;2023-05-15T13:43:34;25.00;99.90
43607;DHT22;29197;44.788;10.366;2023-05-15T13:46:23;25.20;99.90
43607;DHT22;29197;44.788;10.366;2023-05-15T13:49:11;25.40;99.90
43607;DHT22;29197;44.788;10.366;2023-05-15T13:52:00;25.50;99.90
43607;DHT22;29197;44.788;10.366;2023-05-15T13:54:48;25.60;99.90
43607;DHT22;29197;44.788;10.366;2023-05-15T13:57:39;25.70;99.90
43607;DHT22;29197;44.788;10.366;2023-05-15T14:00:28;25.80;99.90
43607;DHT22;29197;44.788;10.366;2023-05-15T14:03:16;25.90;99.90
43607;DHT22;29197;44.788;10.366;2023-05-15T14:06:05;26.00;99.90
43607;DHT22;29197;44.788;10.366;2023-05-15T14:08:55;26.00;99.90
43607;DHT22;29197;44.788;10.366;2023-05-15T14:11:43;26.10;99.90
43607;DHT22;29197;44.788;10.366;2023-05-15T14:20:11;26.10;99.90
43607;DHT22;29197;44.788;10.366;2023-05-15T14:25:48;25.90;99.90
43607;DHT22;29197;44.788;10.366;2023-05-15T14:28:38;25.80;99.90
43607;DHT22;29197;44.788;10.366;2023-05-15T14:31:28;25.70;99.90
43607;DHT22;29197;44.788;10.366;2023-05-15T14:34:17;25.70;99.90
43607;DHT22;29197;44.788;10.366;2023-05-15T14:37:09;25.70;99.90
43607;DHT22;29197;44.788;10.366;2023-05-15T14:39:57;25.70;99.90
43607;DHT22;29197;44.788;10.366;2023-05-15T14:42:46;25.60;99.90
43607;DHT22;29197;44.788;10.366;2023-05-15T14:45:34;25.70;99.90
43607;DHT22;29197;44.788;10.366;2023-05-15T14:48:24;25.60;99.90
43607;DHT22;29197;44.788;10.366;2023-05-15T14:51:13;25.50;99.90
43607;DHT22;29197;44.788;10.366;2023-05-15T14:54:05;25.50;99.90
43607;DHT22;29197;44.788;10.366;2023-05-15T14:56:55;25.60;99.90
43607;DHT22;29197;44.788;10.366;2023-05-15T15:47:51;24.00;99.90
43607;DHT22;29197;44.788;10.366;2023-05-15T15:50:39;24.00;99.90
43607;DHT22;29197;44.788;10.366;2023-05-15T15:53:28;23.90;99.90
43607;DHT22;29197;44.788;10.366;2023-05-15T15:56:21;23.80;99.90
43607;DHT22;29197;44.788;10.366;2023-05-15T15:59:09;23.90;99.90
43607;DHT22;29197;44.788;10.366;2023-05-15T16:01:58;23.90;99.90
43607;DHT22;29197;44.788;10.366;2023-05-15T16:04:47;23.80;99.90
43607;DHT22;29197;44.788;10.366;2023-05-15T16:10:24;23.50;99.90
43607;DHT22;29197;44.788;10.366;2023-05-15T16:13:14;23.40;99.90
43607;DHT22;29197;44.788;10.366;2023-05-15T16:16:02;23.40;99.90
43607;DHT22;29197;44.788;10.366;2023-05-15T16:18:51;23.40;99.90
43607;DHT22;29197;44.788;10.366;2023-05-15T16:21:41;23.30;99.90
43607;DHT22;29197;44.788;10.366;2023-05-15T16:24:30;23.30;99.90
43607;DHT22;29197;44.788;10.366;2023-05-15T16:27:21;23.30;99.90
43607;DHT22;29197;44.788;10.366;2023-05-15T16:30:12;23.30;99.90
43607;DHT22;29197;44.788;10.366;2023-05-15T16:33:01;23.40;99.90
43607;DHT22;29197;44.788;10.366;2023-05-15T16:35:50;23.10;99.90
43607;DHT22;29197;44.788;10.366;2023-05-15T16:38:39;23.00;99.90
43607;DHT22;29197;44.788;10.366;2023-05-15T16:41:28;22.90;99.90
43607;DHT22;29197;44.788;10.366;2023-05-15T16:44:17;22.90;99.90
43607;DHT22;29197;44.788;10.366;2023-05-15T16:47:07;22.90;99.90
43607;DHT22;29197;44.788;10.366;2023-05-15T16:49:56;22.80;99.90
43607;DHT22;29197;44.788;10.366;2023-05-15T16:52:45;22.70;99.90
43607;DHT22;29197;44.788;10.366;2023-05-15T16:55:35;22.70;99.90
43607;DHT22;29197;44.788;10.366;2023-05-15T16:58:23;22.60;99.90
43607;DHT22;29197;44.788;10.366;2023-05-15T17:01:12;22.60;99.90
43607;DHT22;29197;44.788;10.366;2023-05-15T17:04:02;22.50;99.90
43607;DHT22;29197;44.788;10.366;2023-05-15T17:06:50;22.40;99.90
43607;DHT22;29197;44.788;10.366;2023-05-15T17:09:39;22.30;99.90
43607;DHT22;29197;44.788;10.366;2023-05-15T17:12:29;22.20;99.90
43607;DHT22;29197;44.788;10.366;2023-05-15T17:15:17;22.20;99.90
43607;DHT22;29197;44.788;10.366;2023-05-15T17:18:06;22.10;99.90
43607;DHT22;29197;44.788;10.366;2023-05-15T17:20:56;22.00;99.90
43607;DHT22;29197;44.788;10.366;2023-05-15T17:23:44;22.00;99.90
43607;DHT22;29197;44.788;10.366;2023-05-15T17:26:33;21.90;99.90
43607;DHT22;29197;44.788;10.366;2023-05-15T17:29:22;21.80;99.90
43607;DHT22;29197;44.788;10.366;2023-05-15T17:32:11;21.80;99.90
43607;DHT22;29197;44.788;10.366;2023-05-15T17:35:00;21.70;99.90
43607;DHT22;29197;44.788;10.366;2023-05-15T17:37:50;21.70;99.90
43607;DHT22;29197;44.788;10.366;2023-05-15T17:40:38;21.60;99.90
43607;DHT22;29197;44.788;10.366;2023-05-15T17:43:27;21.60;99.90
43607;DHT22;29197;44.788;10.366;2023-05-15T17:46:16;21.50;99.90
43607;DHT22;29197;44.788;10.366;2023-05-15T17:49:04;21.50;99.90
43607;DHT22;29197;44.788;10.366;2023-05-15T17:51:53;21.40;99.90
43607;DHT22;29197;44.788;10.366;2023-05-15T17:54:42;21.40;99.90
43607;DHT22;29197;44.788;10.366;2023-05-15T17:57:31;21.30;99.90
43607;DHT22;29197;44.788;10.366;2023-05-15T18:03:08;21.30;99.90
43607;DHT22;29197;44.788;10.366;2023-05-15T18:05:57;21.20;99.90
43607;DHT22;29197;44.788;10.366;2023-05-15T18:08:45;21.40;99.90
43607;DHT22;29197;44.788;10.366;2023-05-15T18:11:35;21.90;99.90
43607;DHT22;29197;44.788;10.366;2023-05-15T18:14:24;21.20;99.90
43607;DHT22;29197;44.788;10.366;2023-05-15T18:17:12;21.20;99.90
43607;DHT22;29197;44.788;10.366;2023-05-15T18:20:02;21.20;99.90
43607;DHT22;29197;44.788;10.366;2023-05-15T18:22:52;21.20;99.90
43607;DHT22;29197;44.788;10.366;2023-05-15T18:25:40;21.10;99.90
43607;DHT22;29197;44.788;10.366;2023-05-15T18:28:30;21.10;99.90
43607;DHT22;29197;44.788;10.366;2023-05-15T18:31:19;21.00;99.90
43607;DHT22;29197;44.788;10.366;2023-05-15T18:34:07;21.00;99.90
43607;DHT22;29197;44.788;10.366;2023-05-15T18:36:56;20.90;99.90
43607;DHT22;29197;44.788;10.366;2023-05-15T18:39:44;20.90;99.90
43607;DHT22;29197;44.788;10.366;2023-05-15T18:42:34;20.80;99.90
43607;DHT22;29197;44.788;10.366;2023-05-15T18:45:24;20.80;99.90
43607;DHT22;29197;44.788;10.366;2023-05-15T18:48:13;20.80;99.90
43607;DHT22;29197;44.788;10.366;2023-05-15T18:51:01;20.70;99.90
43607;DHT22;29197;44.788;10.366;2023-05-15T18:53:50;20.70;99.90
43607;DHT22;29197;44.788;10.366;2023-05-15T18:56:38;20.70;99.90
43607;DHT22;29197;44.788;10.366;2023-05-15T18:59:29;20.60;99.90
43607;DHT22;29197;44.788;10.366;2023-05-15T19:05:11;20.50;99.90
43607;DHT22;29197;44.788;10.366;2023-05-15T19:07:59;20.40;99.90
43607;DHT22;29197;44.788;10.366;2023-05-15T19:10:49;20.40;99.90
43607;DHT22;29197;44.788;10.366;2023-05-15T19:13:37;20.30;99.90
43607;DHT22;29197;44.788;10.366;2023-05-15T19:16:26;20.30;99.90
43607;DHT22;29197;44.788;10.366;2023-05-15T19:19:16;20.30;99.90
43607;DHT22;29197;44.788;10.366;2023-05-15T19:22:05;20.20;99.90
43607;DHT22;29197;44.788;10.366;2023-05-15T19:24:53;20.20;99.90
43607;DHT22;29197;44.788;10.366;2023-05-15T19:27:42;20.20;99.90
43607;DHT22;29197;44.788;10.366;2023-05-15T19:30:30;20.20;99.90
43607;DHT22;29197;44.788;10.366;2023-05-15T19:33:19;20.10;99.90
43607;DHT22;29197;44.788;10.366;2023-05-15T19:36:10;20.10;99.90
43607;DHT22;29197;44.788;10.366;2023-05-15T19:38:59;20.10;99.90
43607;DHT22;29197;44.788;10.366;2023-05-15T19:41:47;20.10;99.90
43607;DHT22;29197;44.788;10.366;2023-05-15T19:44:35;20.10;99.90
43607;DHT22;29197;44.788;10.366;2023-05-15T19:47:24;20.00;99.90
43607;DHT22;29197;44.788;10.366;2023-05-15T19:50:12;20.00;99.90
43607;DHT22;29197;44.788;10.366;2023-05-15T19:53:02;19.90;99.90
43607;DHT22;29197;44.788;10.366;2023-05-15T19:55:51;19.90;99.90
43607;DHT22;29197;44.788;10.366;2023-05-15T19:58:40;19.90;99.90
43607;DHT22;29197;44.788;10.366;2023-05-15T20:01:28;19.90;99.90
43607;DHT22;29197;44.788;10.366;2023-05-15T20:04:17;19.80;99.90
43607;DHT22;29197;44.788;10.366;2023-05-15T20:07:07;19.80;99.90
43607;DHT22;29197;44.788;10.366;2023-05-15T20:09:56;19.70;99.90
43607;DHT22;29197;44.788;10.366;2023-05-15T20:12:45;19.70;99.90
43607;DHT22;29197;44.788;10.366;2023-05-15T20:15:33;19.70;99.90
43607;DHT22;29197;44.788;10.366;2023-05-15T20:18:26;19.60;99.90
43607;DHT22;29197;44.788;10.366;2023-05-15T20:21:19;19.60;99.90
43607;DHT22;29197;44.788;10.366;2023-05-15T20:24:07;19.60;99.90
43607;DHT22;29197;44.788;10.366;2023-05-15T20:26:57;19.50;99.90
43607;DHT22;29197;44.788;10.366;2023-05-15T20:29:46;19.50;99.90
43607;DHT22;29197;44.788;10.366;2023-05-15T20:32:34;19.50;99.90
43607;DHT22;29197;44.788;10.366;2023-05-15T20:35:23;19.50;99.90
43607;DHT22;29197;44.788;10.366;2023-05-15T20:38:13;19.40;99.90
43607;DHT22;29197;44.788;10.366;2023-05-15T20:41:03;19.40;99.90
43607;DHT22;29197;44.788;10.366;2023-05-15T20:43:53;19.40;99.90
43607;DHT22;29197;44.788;10.366;2023-05-15T20:46:42;19.40;99.90
43607;DHT22;29197;44.788;10.366;2023-05-15T20:49:31;19.30;99.90
43607;DHT22;29197;44.788;10.366;2023-05-15T20:52:19;19.30;99.90
43607;DHT22;29197;44.788;10.366;2023-05-15T20:55:12;19.30;99.90
43607;DHT22;29197;44.788;10.366;2023-05-15T20:58:02;19.20;99.90
43607;DHT22;29197;44.788;10.366;2023-05-15T21:00:52;19.10;99.90
43607;DHT22;29197;44.788;10.366;2023-05-15T21:03:41;19.10;99.90
43607;DHT22;29197;44.788;10.366;2023-05-15T21:06:29;19.10;99.90
43607;DHT22;29197;44.788;10.366;2023-05-15T21:09:18;19.10;99.90
43607;DHT22;29197;44.788;10.366;2023-05-15T21:12:06;19.10;99.90
43607;DHT22;29197;44.788;10.366;2023-05-15T21:14:55;19.00;99.90
43607;DHT22;29197;44.788;10.366;2023-05-15T21:17:45;19.00;99.90
43607;DHT22;29197;44.788;10.366;2023-05-15T21:20:33;18.90;99.90
43607;DHT22;29197;44.788;10.366;2023-05-15T21:23:22;18.90;99.90
43607;DHT22;29197;44.788;10.366;2023-05-15T21:26:10;18.80;99.90
43607;DHT22;29197;44.788;10.366;2023-05-15T21:28:58;18.80;99.90
43607;DHT22;29197;44.788;10.366;2023-05-15T21:31:47;18.80;99.90
43607;DHT22;29197;44.788;10.366;2023-05-15T21:34:37;18.80;99.90
43607;DHT22;29197;44.788;10.366;2023-05-15T21:37:26;18.80;99.90
43607;DHT22;29197;44.788;10.366;2023-05-15T21:40:14;18.70;99.90
43607;DHT22;29197;44.788;10.366;2023-05-15T21:43:03;19.90;99.90
43607;DHT22;29197;44.788;10.366;2023-05-15T21:45:53;18.80;99.90
43607;DHT22;29197;44.788;10.366;2023-05-15T21:48:41;18.80;99.90
43607;DHT22;29197;44.788;10.366;2023-05-15T21:51:31;18.80;99.90
43607;DHT22;29197;44.788;10.366;2023-05-15T21:54:20;18.70;99.90
43607;DHT22;29197;44.788;10.366;2023-05-15T21:57:09;18.60;99.90
43607;DHT22;29197;44.788;10.366;2023-05-15T21:59:57;18.80;99.90
43607;DHT22;29197;44.788;10.366;2023-05-15T22:02:46;18.60;99.90
43607;DHT22;29197;44.788;10.366;2023-05-15T23:44:16;18.40;99.90
43607;DHT22;29197;44.788;10.366;2023-05-15T23:47:04;18.20;99.90
43607;DHT22;29197;44.788;10.366;2023-05-15T23:49:54;18.20;99.90
43607;DHT22;29197;44.788;10.366;2023-05-15T23:52:43;18.00;99.90
43607;DHT22;29197;44.788;10.366;2023-05-15T23:55:31;17.90;99.90
43607;DHT22;29197;44.788;10.366;2023-05-15T23:58:20;17.90;99.90
